createdAt,value
2018-09-29T00:01:16.064Z,98382.00
2018-09-29T00:03:45.275Z,98385.00
2018-09-29T00:06:14.462Z,98393.00
2018-09-29T00:08:43.646Z,98386.00
2018-09-29T00:11:12.865Z,98390.00
2018-09-29T00:13:42.159Z,98385.00
2018-09-29T00:16:11.561Z,98374.00
2018-09-29T00:18:40.754Z,98390.00
2018-09-29T00:21:10.003Z,98380.00
2018-09-29T00:23:39.215Z,98395.00
2018-09-29T00:26:08.523Z,98385.00
2018-09-29T00:28:37.718Z,98377.00
2018-09-29T00:31:06.970Z,98375.00
2018-09-29T00:33:37.034Z,98366.00
2018-09-29T00:36:06.317Z,98367.00
2018-09-29T00:38:35.783Z,98363.00
2018-09-29T00:41:05.039Z,98359.00
2018-09-29T00:43:34.242Z,98363.00
2018-09-29T00:46:03.536Z,98368.00
2018-09-29T00:48:32.754Z,98364.00
2018-09-29T00:51:01.973Z,98368.00
2018-09-29T00:53:31.176Z,98371.00
2018-09-29T00:56:00.454Z,98370.00
2018-09-29T00:58:29.675Z,98387.00
2018-09-29T01:00:58.917Z,98381.00
2018-09-29T01:03:28.107Z,98387.00
2018-09-29T01:05:57.368Z,98376.00
2018-09-29T01:08:26.551Z,98389.00
2018-09-29T01:10:55.766Z,98390.00
2018-09-29T01:13:24.936Z,98398.00
2018-09-29T01:15:54.159Z,98394.00
2018-09-29T01:18:23.355Z,98392.00
2018-09-29T01:20:52.551Z,98401.00
2018-09-29T01:23:21.771Z,98394.00
2018-09-29T01:25:51.003Z,98395.00
2018-09-29T01:28:20.212Z,98391.00
2018-09-29T01:30:49.422Z,98393.00
2018-09-29T01:33:18.642Z,98386.00
2018-09-29T01:35:47.906Z,98392.00
2018-09-29T01:38:17.178Z,98392.00
2018-09-29T01:40:46.432Z,98391.00
2018-09-29T01:43:15.629Z,98396.00
2018-09-29T01:45:44.842Z,98408.00
2018-09-29T01:48:14.023Z,98401.00
2018-09-29T01:50:43.235Z,98404.00
2018-09-29T01:53:12.468Z,98396.00
2018-09-29T01:55:41.719Z,98397.00
2018-09-29T01:58:10.933Z,98388.00
2018-09-29T02:00:40.160Z,98398.00
2018-09-29T02:03:10.263Z,98397.00
2018-09-29T02:05:41.171Z,98393.00
2018-09-29T02:08:10.432Z,98405.00
2018-09-29T02:10:39.657Z,98403.00
2018-09-29T02:13:08.878Z,98416.00
2018-09-29T02:15:38.179Z,98408.00
2018-09-29T02:18:07.441Z,98409.00
2018-09-29T02:20:36.655Z,98419.00
2018-09-29T02:23:05.862Z,98418.00
2018-09-29T02:25:35.078Z,98417.00
2018-09-29T02:28:04.325Z,98411.00
2018-09-29T02:30:33.858Z,98422.00
2018-09-29T02:33:03.181Z,98425.00
2018-09-29T02:35:32.391Z,98417.00
2018-09-29T02:38:01.648Z,98421.00
2018-09-29T02:40:30.909Z,98413.00
2018-09-29T02:43:00.190Z,98409.00
2018-09-29T02:45:29.711Z,98407.00
2018-09-29T02:47:58.950Z,98402.00
2018-09-29T02:50:28.174Z,98403.00
2018-09-29T02:52:57.378Z,98398.00
2018-09-29T02:55:26.609Z,98385.00
2018-09-29T02:57:55.907Z,98391.00
2018-09-29T03:00:25.304Z,98396.00
2018-09-29T03:02:54.625Z,98390.00
2018-09-29T03:05:23.905Z,98392.00
2018-09-29T03:07:53.154Z,98394.00
2018-09-29T03:10:22.331Z,98401.00
2018-09-29T03:12:51.560Z,98405.00
2018-09-29T03:15:20.771Z,98405.00
2018-09-29T03:17:50.075Z,98418.00
2018-09-29T03:20:19.307Z,98409.00
2018-09-29T03:22:48.534Z,98432.00
2018-09-29T03:25:17.724Z,98436.00
2018-09-29T03:27:46.945Z,98428.00
2018-09-29T03:30:16.171Z,98431.00
2018-09-29T03:32:45.451Z,98431.00
2018-09-29T03:35:14.653Z,98429.00
2018-09-29T03:37:43.851Z,98432.00
2018-09-29T03:40:13.131Z,98422.00
2018-09-29T03:42:42.427Z,98423.00
2018-09-29T03:45:11.610Z,98416.00
2018-09-29T03:47:40.830Z,98417.00
2018-09-29T03:50:10.030Z,98406.00
2018-09-29T03:52:39.242Z,98406.00
2018-09-29T03:55:08.428Z,98407.00
2018-09-29T03:57:37.672Z,98397.00
2018-09-29T04:00:06.875Z,98402.00
2018-09-29T04:02:36.107Z,98407.00
2018-09-29T04:05:05.583Z,98405.00
2018-09-29T04:07:34.802Z,98406.00
2018-09-29T04:10:04.080Z,98416.00
2018-09-29T04:12:33.339Z,98418.00
2018-09-29T04:15:02.542Z,98411.00
2018-09-29T04:17:31.746Z,98420.00
2018-09-29T04:20:01.005Z,98420.00
2018-09-29T04:22:30.218Z,98417.00
2018-09-29T04:24:59.414Z,98419.00
2018-09-29T04:27:28.649Z,98428.00
2018-09-29T04:29:57.860Z,98430.00
2018-09-29T04:32:27.204Z,98438.00
2018-09-29T04:34:56.395Z,98433.00
2018-09-29T04:37:25.616Z,98452.00
2018-09-29T04:39:54.828Z,98389.00
2018-09-29T04:42:24.068Z,98447.00
2018-09-29T04:44:53.254Z,98444.00
2018-09-29T04:47:22.472Z,98444.00
2018-09-29T04:49:51.731Z,98454.00
2018-09-29T04:52:20.982Z,98456.00
2018-09-29T04:54:50.170Z,98459.00
2018-09-29T04:57:19.389Z,98459.00
2018-09-29T04:59:48.599Z,98462.00
2018-09-29T05:02:17.794Z,98458.00
2018-09-29T05:04:47.006Z,98448.00
2018-09-29T05:07:16.220Z,98461.00
2018-09-29T05:09:45.457Z,98468.00
2018-09-29T05:12:14.663Z,98467.00
2018-09-29T05:14:43.871Z,98465.00
2018-09-29T05:17:13.077Z,98466.00
2018-09-29T05:19:42.294Z,98462.00
2018-09-29T05:22:11.542Z,98462.00
2018-09-29T05:24:40.917Z,98478.00
2018-09-29T05:27:10.239Z,98463.00
2018-09-29T05:29:39.473Z,98474.00
2018-09-29T05:32:08.899Z,98481.00
2018-09-29T05:34:38.090Z,98483.00
2018-09-29T05:37:07.595Z,98477.00
2018-09-29T05:39:36.833Z,98491.00
2018-09-29T05:42:06.078Z,98486.00
2018-09-29T05:44:35.324Z,98479.00
2018-09-29T05:47:04.526Z,98494.00
2018-09-29T05:49:33.802Z,98488.00
2018-09-29T05:52:03.312Z,98489.00
2018-09-29T05:54:32.712Z,98494.00
2018-09-29T05:57:01.926Z,98492.00
2018-09-29T05:59:31.106Z,98495.00
2018-09-29T06:02:00.310Z,98490.00
2018-09-29T06:04:30.003Z,98497.00
2018-09-29T06:06:59.227Z,98500.00
2018-09-29T06:09:28.420Z,98500.00
2018-09-29T06:11:57.596Z,98505.00
2018-09-29T06:14:26.797Z,98507.00
2018-09-29T06:16:56.063Z,98505.00
2018-09-29T06:19:25.265Z,98513.00
2018-09-29T06:21:54.471Z,98507.00
2018-09-29T06:24:23.695Z,98521.00
2018-09-29T06:26:52.894Z,98516.00
2018-09-29T06:29:22.094Z,98515.00
2018-09-29T06:31:51.326Z,98513.00
2018-09-29T06:34:20.551Z,98510.00
2018-09-29T06:36:49.768Z,98518.00
2018-09-29T06:39:19.022Z,98514.00
2018-09-29T06:41:48.226Z,98510.00
2018-09-29T06:44:17.415Z,98513.00
2018-09-29T06:46:46.579Z,98506.00
2018-09-29T06:49:15.775Z,98512.00
2018-09-29T06:51:44.961Z,98517.00
2018-09-29T06:54:14.267Z,98528.00
2018-09-29T06:56:43.481Z,98510.00
2018-09-29T06:59:12.688Z,98508.00
2018-09-29T07:01:41.921Z,98507.00
2018-09-29T07:04:11.114Z,98522.00
2018-09-29T07:06:40.313Z,98542.00
2018-09-29T07:09:11.065Z,98514.00
2018-09-29T07:11:40.310Z,98515.00
2018-09-29T07:14:09.664Z,98509.00
2018-09-29T07:16:38.890Z,98507.00
2018-09-29T07:19:08.075Z,98507.00
2018-09-29T07:21:37.347Z,98504.00
2018-09-29T07:24:06.552Z,98521.00
2018-09-29T07:26:35.859Z,98504.00
2018-09-29T07:29:05.124Z,98507.00
2018-09-29T07:31:34.401Z,98505.00
2018-09-29T07:34:03.614Z,98521.00
2018-09-29T07:36:32.808Z,98518.00
2018-09-29T07:39:02.045Z,98513.00
2018-09-29T07:41:31.254Z,98526.00
2018-09-29T07:44:00.460Z,98531.00
2018-09-29T07:46:29.679Z,98547.00
2018-09-29T07:48:58.924Z,98548.00
2018-09-29T07:51:28.165Z,98555.00
2018-09-29T07:53:57.347Z,98553.00
2018-09-29T07:56:26.586Z,98555.00
2018-09-29T07:58:55.802Z,98550.00
2018-09-29T08:01:25.305Z,98555.00
2018-09-29T08:03:54.491Z,98549.00
2018-09-29T08:06:23.813Z,98552.00
2018-09-29T08:08:52.999Z,98556.00
2018-09-29T08:11:22.198Z,98549.00
2018-09-29T08:13:51.381Z,98560.00
2018-09-29T08:16:20.599Z,98552.00
2018-09-29T08:18:49.771Z,98551.00
2018-09-29T08:21:18.988Z,98556.00
2018-09-29T08:23:48.266Z,98560.00
2018-09-29T08:26:17.519Z,98560.00
2018-09-29T08:28:46.703Z,98548.00
2018-09-29T08:31:15.902Z,98554.00
2018-09-29T08:33:45.135Z,98551.00
2018-09-29T08:36:14.330Z,98549.00
2018-09-29T08:38:43.504Z,98541.00
2018-09-29T08:41:12.744Z,98540.00
2018-09-29T08:43:41.933Z,98547.00
2018-09-29T08:46:11.180Z,98531.00
2018-09-29T08:48:40.352Z,98542.00
2018-09-29T08:51:09.580Z,98547.00
2018-09-29T08:53:38.863Z,98545.00
2018-09-29T08:56:08.058Z,98553.00
2018-09-29T08:58:37.233Z,98554.00
2018-09-29T09:01:06.535Z,98560.00
2018-09-29T09:03:35.755Z,98559.00
2018-09-29T09:06:05.043Z,98547.00
2018-09-29T09:08:34.241Z,98555.00
2018-09-29T09:11:03.471Z,98549.00
2018-09-29T09:13:32.666Z,98550.00
2018-09-29T09:16:01.919Z,98550.00
2018-09-29T09:18:31.263Z,98551.00
2018-09-29T09:21:00.475Z,98547.00
2018-09-29T09:23:29.848Z,98549.00
2018-09-29T09:25:59.279Z,98548.00
2018-09-29T09:28:28.500Z,98545.00
2018-09-29T09:30:57.699Z,98522.00
2018-09-29T09:33:26.880Z,98544.00
2018-09-29T09:35:56.306Z,98555.00
2018-09-29T09:38:26.558Z,98555.00
2018-09-29T09:40:55.780Z,98555.00
2018-09-29T09:43:25.019Z,98543.00
2018-09-29T09:45:54.234Z,98549.00
2018-09-29T09:48:23.465Z,98552.00
2018-09-29T09:50:52.751Z,98551.00
2018-09-29T09:53:21.935Z,98460.00
2018-09-29T09:55:51.261Z,98544.00
2018-09-29T09:58:20.406Z,98543.00
2018-09-29T10:00:54.987Z,98530.00
2018-09-29T10:03:28.757Z,98525.00
2018-09-29T10:05:58.102Z,98524.00
2018-09-29T10:08:27.503Z,98522.00
2018-09-29T10:10:56.707Z,98522.00
2018-09-29T10:13:25.923Z,98522.00
2018-09-29T10:15:55.224Z,98527.00
2018-09-29T10:18:24.468Z,98527.00
2018-09-29T10:20:53.763Z,98528.00
2018-09-29T10:23:22.987Z,98528.00
2018-09-29T10:25:52.254Z,98540.00
2018-09-29T10:28:21.499Z,98515.00
2018-09-29T10:30:50.766Z,98525.00
2018-09-29T10:33:19.986Z,98511.00
2018-09-29T10:35:49.267Z,98517.00
2018-09-29T10:38:18.605Z,98508.00
2018-09-29T10:40:47.848Z,98496.00
2018-09-29T10:43:17.058Z,98398.00
2018-09-29T10:45:46.272Z,98490.00
2018-09-29T10:48:15.605Z,98467.00
2018-09-29T10:50:44.804Z,98476.00
2018-09-29T10:53:14.027Z,98495.00
2018-09-29T10:55:43.244Z,98477.00
2018-09-29T10:58:12.505Z,98477.00
2018-09-29T11:00:41.722Z,98457.00
2018-09-29T11:03:10.959Z,98466.00
2018-09-29T11:05:40.307Z,98470.00
2018-09-29T11:08:09.714Z,98477.00
2018-09-29T11:10:38.951Z,98454.00
2018-09-29T11:13:08.259Z,98461.00
2018-09-29T11:15:37.497Z,98451.00
2018-09-29T11:18:06.828Z,98450.00
2018-09-29T11:20:36.001Z,98469.00
2018-09-29T11:23:05.223Z,98450.00
2018-09-29T11:25:34.453Z,98453.00
2018-09-29T11:28:03.746Z,98451.00
2018-09-29T11:30:32.936Z,98453.00
2018-09-29T11:33:02.306Z,98451.00
2018-09-29T11:35:31.596Z,98443.00
2018-09-29T11:38:00.779Z,98440.00
2018-09-29T11:40:30.443Z,98441.00
2018-09-29T11:42:59.683Z,98436.00
2018-09-29T11:45:28.930Z,98436.00
2018-09-29T11:47:58.168Z,98433.00
2018-09-29T11:50:27.504Z,98432.00
2018-09-29T11:52:56.742Z,98420.00
2018-09-29T11:55:25.910Z,98412.00
2018-09-29T11:57:55.095Z,98413.00
2018-09-29T12:00:24.266Z,98416.00
2018-09-29T12:02:53.879Z,98413.00
2018-09-29T12:05:23.257Z,98414.00
2018-09-29T12:07:52.531Z,98410.00
2018-09-29T12:10:21.770Z,98417.00
2018-09-29T12:12:51.093Z,98410.00
2018-09-29T12:15:20.276Z,98414.00
2018-09-29T12:17:49.498Z,98395.00
2018-09-29T12:20:18.683Z,98410.00
2018-09-29T12:22:47.906Z,98400.00
2018-09-29T12:25:17.339Z,98390.00
2018-09-29T12:27:46.658Z,98399.00
2018-09-29T12:30:15.881Z,98396.00
2018-09-29T12:32:45.101Z,98390.00
2018-09-29T12:35:14.314Z,98387.00
2018-09-29T12:37:43.595Z,98381.00
2018-09-29T12:40:12.701Z,98385.00
2018-09-29T12:42:41.969Z,98381.00
2018-09-29T12:45:11.168Z,98366.00
2018-09-29T12:47:40.437Z,98387.00
2018-09-29T12:50:09.612Z,98384.00
2018-09-29T12:52:38.862Z,98384.00
2018-09-29T12:55:08.036Z,98377.00
2018-09-29T12:57:37.230Z,98374.00
2018-09-29T13:00:07.018Z,98371.00
2018-09-29T13:02:36.232Z,98379.00
2018-09-29T13:05:05.524Z,98375.00
2018-09-29T13:07:34.799Z,98373.00
2018-09-29T13:10:04.047Z,98374.00
2018-09-29T13:12:33.279Z,98368.00
2018-09-29T13:15:02.485Z,98365.00
2018-09-29T13:17:31.728Z,98365.00
2018-09-29T13:20:00.925Z,98360.00
2018-09-29T13:22:30.134Z,98365.00
2018-09-29T13:24:59.323Z,98352.00
2018-09-29T13:27:28.840Z,98357.00
2018-09-29T13:29:58.135Z,98337.00
2018-09-29T13:32:27.438Z,98333.00
2018-09-29T13:34:56.688Z,98335.00
2018-09-29T13:37:25.927Z,98338.00
2018-09-29T13:39:55.145Z,98340.00
2018-09-29T13:42:24.422Z,98331.00
2018-09-29T13:44:53.931Z,98329.00
2018-09-29T13:47:23.335Z,98326.00
2018-09-29T13:49:52.555Z,98335.00
2018-09-29T13:52:21.766Z,98328.00
2018-09-29T13:54:50.981Z,98325.00
2018-09-29T13:57:20.193Z,98327.00
2018-09-29T13:59:49.421Z,98320.00
2018-09-29T14:02:19.563Z,98305.00
2018-09-29T14:04:48.874Z,98309.00
2018-09-29T14:07:18.114Z,98300.00
2018-09-29T14:09:47.390Z,98303.00
2018-09-29T14:12:16.723Z,98308.00
2018-09-29T14:14:46.270Z,98303.00
2018-09-29T14:17:15.463Z,98289.00
2018-09-29T14:19:44.709Z,98291.00
2018-09-29T14:22:13.907Z,98285.00
2018-09-29T14:24:43.127Z,98280.00
2018-09-29T14:27:12.406Z,98274.00
2018-09-29T14:29:41.627Z,98274.00
2018-09-29T14:32:10.826Z,98273.00
2018-09-29T14:34:40.066Z,98265.00
2018-09-29T14:37:09.346Z,98265.00
2018-09-29T14:39:38.717Z,98254.00
2018-09-29T14:42:08.028Z,98259.00
2018-09-29T14:44:37.251Z,98254.00
2018-09-29T14:47:06.582Z,98260.00
2018-09-29T14:49:35.799Z,98254.00
2018-09-29T14:52:05.027Z,98259.00
2018-09-29T14:54:34.341Z,98258.00
2018-09-29T14:57:03.521Z,98261.00
2018-09-29T14:59:32.786Z,98254.00
2018-09-29T15:02:02.035Z,98254.00
2018-09-29T15:04:31.252Z,98253.00
2018-09-29T15:07:00.446Z,98255.00
2018-09-29T15:09:29.653Z,98216.00
2018-09-29T15:11:58.853Z,98247.00
2018-09-29T15:14:28.054Z,98238.00
2018-09-29T15:16:57.308Z,98235.00
2018-09-29T15:19:26.517Z,98247.00
2018-09-29T15:21:55.806Z,98225.00
2018-09-29T15:24:25.033Z,98221.00
2018-09-29T15:26:54.201Z,98218.00
2018-09-29T15:29:23.409Z,98228.00
2018-09-29T15:31:52.675Z,98212.00
2018-09-29T15:34:21.936Z,98212.00
2018-09-29T15:36:51.217Z,98225.00
2018-09-29T15:39:20.498Z,98187.00
2018-09-29T15:41:49.699Z,98208.00
2018-09-29T15:44:18.925Z,98207.00
2018-09-29T15:46:48.128Z,98202.00
2018-09-29T15:49:17.368Z,98209.00
2018-09-29T15:51:46.620Z,98208.00
2018-09-29T15:54:15.841Z,98215.00
2018-09-29T15:56:45.111Z,98210.00
2018-09-29T15:59:14.363Z,98211.00
2018-09-29T16:01:43.588Z,98207.00
2018-09-29T16:04:12.815Z,98206.00
2018-09-29T16:06:42.047Z,98201.00
2018-09-29T16:09:11.463Z,98196.00
2018-09-29T16:11:41.075Z,98200.00
2018-09-29T16:14:10.408Z,98188.00
2018-09-29T16:16:39.602Z,98193.00
2018-09-29T16:19:08.812Z,98196.00
2018-09-29T16:21:38.069Z,98180.00
2018-09-29T16:24:07.251Z,98179.00
2018-09-29T16:26:36.478Z,98185.00
2018-09-29T16:29:05.688Z,98179.00
2018-09-29T16:31:34.942Z,98177.00
2018-09-29T16:34:04.149Z,98173.00
2018-09-29T16:36:33.345Z,98173.00
2018-09-29T16:39:02.596Z,98163.00
2018-09-29T16:41:31.847Z,98174.00
2018-09-29T16:44:01.172Z,98157.00
2018-09-29T16:46:30.348Z,98173.00
2018-09-29T16:48:59.549Z,98162.00
2018-09-29T16:51:28.764Z,98168.00
2018-09-29T16:53:57.974Z,98166.00
2018-09-29T16:56:27.180Z,98160.00
2018-09-29T16:58:56.382Z,98168.00
2018-09-29T17:01:25.580Z,98166.00
2018-09-29T17:03:54.884Z,98166.00
2018-09-29T17:06:24.057Z,98156.00
2018-09-29T17:08:53.273Z,98169.00
2018-09-29T17:11:22.478Z,98158.00
2018-09-29T17:13:51.668Z,98156.00
2018-09-29T17:16:20.922Z,98162.00
2018-09-29T17:18:50.161Z,98153.00
2018-09-29T17:21:20.074Z,98153.00
2018-09-29T17:23:49.234Z,98158.00
2018-09-29T17:26:18.463Z,98166.00
2018-09-29T17:28:47.639Z,98171.00
2018-09-29T17:31:17.606Z,98173.00
2018-09-29T17:33:46.810Z,98159.00
2018-09-29T17:36:16.061Z,98162.00
2018-09-29T17:38:45.239Z,98164.00
2018-09-29T17:41:14.833Z,98154.00
2018-09-29T17:43:46.233Z,98159.00
2018-09-29T17:46:15.466Z,98182.00
2018-09-29T17:48:44.695Z,98155.00
2018-09-29T17:51:13.932Z,98158.00
2018-09-29T17:53:43.179Z,98155.00
2018-09-29T17:56:12.397Z,98160.00
2018-09-29T17:58:41.629Z,98155.00
2018-09-29T18:01:10.882Z,98153.00
2018-09-29T18:03:40.127Z,98159.00
2018-09-29T18:06:09.385Z,98157.00
2018-09-29T18:08:38.682Z,98158.00
2018-09-29T18:11:08.100Z,98144.00
2018-09-29T18:13:37.432Z,98154.00
2018-09-29T18:16:06.794Z,98162.00
2018-09-29T18:18:36.213Z,98150.00
2018-09-29T18:21:05.426Z,98158.00
2018-09-29T18:23:34.656Z,98151.00
2018-09-29T18:26:03.926Z,98161.00
2018-09-29T18:28:33.179Z,98052.00
2018-09-29T18:31:02.990Z,98155.00
2018-09-29T18:33:32.266Z,98156.00
2018-09-29T18:36:01.528Z,98160.00
2018-09-29T18:38:30.787Z,98163.00
2018-09-29T18:41:00.038Z,98158.00
2018-09-29T18:43:29.244Z,98165.00
2018-09-29T18:45:58.481Z,98158.00
2018-09-29T18:48:27.744Z,98167.00
2018-09-29T18:50:56.964Z,98160.00
2018-09-29T18:53:26.172Z,98159.00
2018-09-29T18:55:55.397Z,98166.00
2018-09-29T18:58:24.619Z,98160.00
2018-09-29T19:00:53.844Z,98161.00
2018-09-29T19:03:23.062Z,98167.00
2018-09-29T19:05:52.298Z,98164.00
2018-09-29T19:08:22.256Z,98171.00
2018-09-29T19:10:51.459Z,98162.00
2018-09-29T19:13:20.670Z,98163.00
2018-09-29T19:15:56.015Z,98169.00
2018-09-29T19:18:25.226Z,98169.00
2018-09-29T19:20:54.466Z,98158.00
2018-09-29T19:23:24.293Z,98152.00
2018-09-29T19:25:53.524Z,98149.00
2018-09-29T19:28:22.718Z,98156.00
2018-09-29T19:30:51.927Z,98151.00
2018-09-29T19:33:21.122Z,98144.00
2018-09-29T19:35:52.640Z,98150.00
2018-09-29T19:38:21.827Z,98148.00
2018-09-29T19:40:51.027Z,98148.00
2018-09-29T19:43:21.375Z,98147.00
2018-09-29T19:45:50.753Z,98152.00
2018-09-29T19:48:20.920Z,98153.00
2018-09-29T19:50:57.992Z,98147.00
2018-09-29T19:53:27.170Z,98139.00
2018-09-29T19:56:05.050Z,98144.00
2018-09-29T19:58:34.504Z,98143.00
2018-09-29T20:01:04.680Z,98138.00
2018-09-29T20:03:33.960Z,98142.00
2018-09-29T20:06:03.188Z,98137.00
2018-09-29T20:08:32.423Z,98134.00
2018-09-29T20:11:01.637Z,98133.00
2018-09-29T20:13:30.934Z,98121.00
2018-09-29T20:16:00.174Z,98128.00
2018-09-29T20:18:29.391Z,98127.00
2018-09-29T20:20:58.621Z,98129.00
2018-09-29T20:23:30.678Z,98121.00
2018-09-29T20:25:59.894Z,98127.00
2018-09-29T20:28:29.073Z,98123.00
2018-09-29T20:30:58.946Z,98114.00
2018-09-29T20:33:28.127Z,98124.00
2018-09-29T20:36:00.717Z,98111.00
2018-09-29T20:38:29.903Z,98115.00
2018-09-29T20:40:59.161Z,98109.00
2018-09-29T20:43:28.346Z,98110.00
2018-09-29T20:45:58.610Z,98114.00
2018-09-29T20:48:27.855Z,98107.00
2018-09-29T20:51:00.915Z,98112.00
2018-09-29T20:53:30.093Z,98099.00
2018-09-29T20:55:59.307Z,98097.00
2018-09-29T20:58:28.491Z,98103.00
2018-09-29T21:00:57.701Z,98098.00
2018-09-29T21:03:26.948Z,98095.00
2018-09-29T21:05:56.187Z,98082.00
2018-09-29T21:08:25.356Z,98081.00
2018-09-29T21:10:54.590Z,98083.00
2018-09-29T21:13:23.947Z,98088.00
2018-09-29T21:15:53.141Z,98077.00
2018-09-29T21:18:22.378Z,98066.00
2018-09-29T21:20:51.561Z,98072.00
2018-09-29T21:23:23.755Z,98080.00
2018-09-29T21:25:52.938Z,98068.00
2018-09-29T21:28:22.155Z,98069.00
2018-09-29T21:30:51.399Z,98067.00
2018-09-29T21:33:20.607Z,98064.00
2018-09-29T21:35:49.810Z,98059.00
2018-09-29T21:38:19.039Z,98079.00
2018-09-29T21:40:48.242Z,98067.00
2018-09-29T21:43:24.098Z,98066.00
2018-09-29T21:45:53.325Z,98048.00
2018-09-29T21:48:22.558Z,98051.00
2018-09-29T21:50:51.742Z,98054.00
2018-09-29T21:53:21.047Z,98055.00
2018-09-29T21:55:50.245Z,98041.00
2018-09-29T21:58:19.471Z,98028.00
2018-09-29T22:00:48.642Z,98040.00
2018-09-29T22:03:17.983Z,98046.00
2018-09-29T22:05:47.210Z,98021.00
2018-09-29T22:08:16.409Z,98028.00
2018-09-29T22:10:45.614Z,98032.00
2018-09-29T22:13:14.832Z,98024.00
2018-09-29T22:15:44.032Z,98034.00
2018-09-29T22:18:13.234Z,98026.00
2018-09-29T22:20:42.435Z,98010.00
2018-09-29T22:23:11.621Z,98017.00
2018-09-29T22:25:40.839Z,98005.00
2018-09-29T22:28:10.039Z,98004.00
2018-09-29T22:30:39.297Z,98003.00
2018-09-29T22:33:08.653Z,97988.00
2018-09-29T22:35:37.824Z,97992.00
2018-09-29T22:38:07.497Z,97988.00
2018-09-29T22:40:36.704Z,97988.00
2018-09-29T22:43:05.967Z,97981.00
2018-09-29T22:45:35.168Z,97988.00
2018-09-29T22:48:04.382Z,97983.00
2018-09-29T22:50:33.603Z,97991.00
2018-09-29T22:53:02.806Z,97986.00
2018-09-29T22:55:31.989Z,97978.00
2018-09-29T22:58:01.210Z,97964.00
2018-09-29T23:00:30.421Z,97966.00
2018-09-29T23:02:59.639Z,97958.00
2018-09-29T23:05:28.825Z,97959.00
2018-09-29T23:07:58.026Z,97954.00
2018-09-29T23:10:27.238Z,97963.00
2018-09-29T23:12:56.429Z,97964.00
2018-09-29T23:15:25.607Z,97964.00
2018-09-29T23:17:55.069Z,97946.00
2018-09-29T23:20:24.275Z,97964.00
2018-09-29T23:22:53.502Z,97958.00
2018-09-29T23:25:22.715Z,97937.00
2018-09-29T23:27:51.990Z,97935.00
2018-09-29T23:30:21.177Z,97935.00
2018-09-29T23:32:50.395Z,97956.00
2018-09-29T23:35:19.589Z,97940.00
2018-09-29T23:37:48.828Z,97946.00
2018-09-29T23:40:18.013Z,97930.00
2018-09-29T23:42:52.686Z,97939.00
2018-09-29T23:45:21.926Z,97934.00
2018-09-29T23:47:51.133Z,97933.00
2018-09-29T23:50:20.332Z,97947.00
2018-09-29T23:52:49.551Z,97931.00
2018-09-29T23:55:18.711Z,97929.00
2018-09-29T23:57:47.906Z,97933.00
